createdAt,value
2019-05-29T00:00:33.764Z,100459.34
2019-05-29T00:03:06.607Z,100459.52
2019-05-29T00:05:39.396Z,100463.68
2019-05-29T00:08:12.320Z,100477.02
2019-05-29T00:10:45.160Z,100481.84
2019-05-29T00:13:18.458Z,100477.25
2019-05-29T00:15:51.135Z,100480.63
2019-05-29T00:18:23.515Z,100480.37
2019-05-29T00:20:56.201Z,100485.05
2019-05-29T00:23:28.585Z,100488.35
2019-05-29T00:26:01.118Z,100494.28
2019-05-29T00:28:33.656Z,100498.03
2019-05-29T00:31:06.136Z,100496.73
2019-05-29T00:33:38.690Z,100504.53
2019-05-29T00:36:12.341Z,100503.13
2019-05-29T00:38:45.000Z,100509.91
2019-05-29T00:41:17.640Z,100511.03
2019-05-29T00:43:50.535Z,100511.95
2019-05-29T00:46:23.300Z,100511.20
2019-05-29T00:48:55.800Z,100516.83
2019-05-29T00:51:28.325Z,100522.73
2019-05-29T00:54:00.814Z,100530.06
2019-05-29T00:56:33.470Z,100531.18
2019-05-29T00:59:06.076Z,100529.67
2019-05-29T01:01:38.604Z,100526.84
2019-05-29T01:04:11.513Z,100534.98
2019-05-29T01:06:45.227Z,100529.23
2019-05-29T01:09:18.597Z,100535.98
2019-05-29T01:11:51.265Z,100542.81
2019-05-29T01:14:23.804Z,100546.39
2019-05-29T01:16:56.210Z,100544.02
2019-05-29T01:19:28.706Z,100550.22
2019-05-29T01:22:01.614Z,100552.64
2019-05-29T01:24:34.032Z,100554.97
2019-05-29T01:27:07.485Z,100553.75
2019-05-29T01:29:40.280Z,100550.82
2019-05-29T01:32:13.439Z,100548.84
2019-05-29T01:34:46.748Z,100559.84
2019-05-29T01:37:20.216Z,100555.05
2019-05-29T01:39:53.979Z,100568.08
2019-05-29T01:42:27.728Z,100567.41
2019-05-29T01:45:07.822Z,100579.31
2019-05-29T01:47:35.686Z,100585.97
2019-05-29T01:50:09.270Z,100585.27
2019-05-29T01:52:41.780Z,100587.62
2019-05-29T01:55:15.628Z,100587.32
2019-05-29T01:57:49.565Z,100596.60
2019-05-29T02:00:24.672Z,100600.23
2019-05-29T02:02:57.165Z,100598.64
2019-05-29T02:05:29.690Z,100595.72
2019-05-29T02:08:02.093Z,100606.67
2019-05-29T02:10:34.596Z,100612.02
2019-05-29T02:13:07.272Z,100615.64
2019-05-29T02:15:39.990Z,100614.88
2019-05-29T02:18:12.625Z,100620.22
2019-05-29T02:20:48.231Z,100625.25
2019-05-29T02:23:39.915Z,100627.69
2019-05-29T02:26:12.725Z,100634.08
2019-05-29T02:28:45.195Z,100647.65
2019-05-29T02:31:19.411Z,100658.83
2019-05-29T02:33:51.787Z,100661.32
2019-05-29T02:36:24.739Z,100672.44
2019-05-29T02:38:58.787Z,100684.10
2019-05-29T02:41:31.470Z,100678.72
2019-05-29T02:44:04.145Z,100680.80
2019-05-29T02:46:36.621Z,100686.38
2019-05-29T02:49:09.292Z,100681.97
2019-05-29T02:51:42.055Z,100687.52
2019-05-29T02:54:14.966Z,100693.93
2019-05-29T02:56:47.436Z,100692.25
2019-05-29T02:59:21.096Z,100699.34
2019-05-29T03:01:53.691Z,100701.56
2019-05-29T03:04:26.706Z,100705.27
2019-05-29T03:07:01.192Z,100707.20
2019-05-29T03:09:33.926Z,100709.58
2019-05-29T03:12:06.336Z,100719.78
2019-05-29T03:14:39.237Z,100722.14
2019-05-29T03:17:12.259Z,100730.61
2019-05-29T03:19:44.776Z,100734.09
2019-05-29T03:22:17.562Z,100732.30
2019-05-29T03:24:49.950Z,100739.69
2019-05-29T03:27:22.315Z,100746.25
2019-05-29T03:29:54.878Z,100747.69
2019-05-29T03:32:32.438Z,100745.61
2019-05-29T03:35:02.829Z,100752.72
2019-05-29T03:37:35.341Z,100756.51
2019-05-29T03:40:09.332Z,100758.87
2019-05-29T03:42:41.686Z,100764.19
2019-05-29T03:45:14.391Z,100768.38
2019-05-29T03:47:47.042Z,100767.19
2019-05-29T03:50:19.651Z,100767.27
2019-05-29T03:52:52.326Z,100768.13
2019-05-29T03:55:24.791Z,100768.36
2019-05-29T03:57:58.015Z,100774.12
2019-05-29T04:00:40.171Z,100773.55
2019-05-29T04:03:04.911Z,100774.81
2019-05-29T04:05:38.044Z,100788.13
2019-05-29T04:08:11.146Z,100790.31
2019-05-29T04:10:43.587Z,100789.43
2019-05-29T04:13:16.117Z,100803.34
2019-05-29T04:15:50.196Z,100801.83
2019-05-29T04:18:24.191Z,100802.91
2019-05-29T04:20:58.534Z,100815.15
2019-05-29T04:23:36.107Z,100814.75
2019-05-29T04:26:10.332Z,100813.73
2019-05-29T04:28:43.317Z,100812.77
2019-05-29T04:31:15.864Z,100827.79
2019-05-29T04:33:48.706Z,100835.22
2019-05-29T04:36:21.391Z,100836.23
2019-05-29T04:38:53.835Z,100839.17
2019-05-29T04:41:26.397Z,100844.02
2019-05-29T04:43:58.885Z,100855.86
2019-05-29T04:46:31.791Z,100862.75
2019-05-29T04:49:04.470Z,100864.72
2019-05-29T04:51:37.483Z,100868.59
2019-05-29T04:54:10.023Z,100868.13
2019-05-29T04:56:42.710Z,100867.68
2019-05-29T04:59:15.075Z,100869.41
2019-05-29T05:01:47.879Z,100871.86
2019-05-29T05:04:20.530Z,100872.72
2019-05-29T05:06:53.175Z,100885.72
2019-05-29T05:09:25.690Z,100890.23
2019-05-29T05:11:59.320Z,100894.81
2019-05-29T05:14:31.896Z,100901.78
2019-05-29T05:17:04.350Z,100910.64
2019-05-29T05:19:37.998Z,100909.67
2019-05-29T05:22:10.774Z,100916.27
2019-05-29T05:24:44.131Z,100917.34
2019-05-29T05:27:16.532Z,100922.13
2019-05-29T05:29:49.064Z,100934.33
2019-05-29T05:32:21.732Z,100934.05
2019-05-29T05:34:54.375Z,100940.80
2019-05-29T05:37:27.061Z,100943.23
2019-05-29T05:39:59.599Z,100958.92
2019-05-29T05:42:35.104Z,100964.61
2019-05-29T05:45:10.872Z,100972.19
2019-05-29T05:47:53.615Z,100983.74
2019-05-29T05:50:19.696Z,100977.66
2019-05-29T05:52:52.226Z,100987.88
2019-05-29T05:55:24.840Z,100995.69
2019-05-29T05:57:57.591Z,100996.25
2019-05-29T06:00:35.908Z,100998.94
2019-05-29T06:03:08.852Z,100992.45
2019-05-29T06:05:42.291Z,101008.13
2019-05-29T06:08:16.180Z,101008.22
2019-05-29T06:13:25.018Z,101005.13
2019-05-29T06:15:58.465Z,101010.36
2019-05-29T06:18:32.281Z,101010.63
2019-05-29T06:21:05.200Z,101004.44
2019-05-29T06:23:38.826Z,101009.86
2019-05-29T06:26:11.341Z,101004.23
2019-05-29T06:28:45.245Z,101010.77
2019-05-29T06:31:17.741Z,101007.03
2019-05-29T06:33:50.331Z,101010.16
2019-05-29T06:36:22.981Z,101018.24
2019-05-29T06:38:55.680Z,101023.40
2019-05-29T06:41:28.742Z,101027.47
2019-05-29T06:44:01.643Z,101033.85
2019-05-29T06:46:34.441Z,101040.67
2019-05-29T06:49:06.878Z,101047.97
2019-05-29T06:51:39.590Z,101037.91
2019-05-29T06:54:12.160Z,101029.73
2019-05-29T06:56:44.870Z,101040.53
2019-05-29T06:59:17.665Z,101044.83
2019-05-29T07:01:50.330Z,101043.72
2019-05-29T07:04:23.245Z,101058.05
2019-05-29T07:06:55.765Z,101054.72
2019-05-29T07:09:28.470Z,101058.39
2019-05-29T07:12:00.955Z,101067.02
2019-05-29T07:14:33.530Z,101068.36
2019-05-29T07:17:05.976Z,101072.23
2019-05-29T07:19:49.054Z,101067.37
2019-05-29T07:22:12.557Z,101071.84
2019-05-29T07:24:45.110Z,101080.53
2019-05-29T07:27:17.715Z,101066.92
2019-05-29T07:29:50.006Z,101070.14
2019-05-29T07:32:22.536Z,101069.70
2019-05-29T07:35:03.201Z,101074.36
2019-05-29T07:37:30.478Z,101078.05
2019-05-29T07:40:03.015Z,101082.81
2019-05-29T07:42:35.375Z,101084.25
2019-05-29T07:45:09.915Z,101080.63
2019-05-29T07:47:42.761Z,101091.45
2019-05-29T07:50:16.156Z,101090.44
2019-05-29T07:52:49.201Z,101090.66
2019-05-29T07:55:23.662Z,101096.03
2019-05-29T07:57:55.576Z,101105.67
2019-05-29T08:00:35.825Z,101112.53
2019-05-29T08:03:02.203Z,101117.11
2019-05-29T08:05:34.756Z,101120.03
2019-05-29T08:08:07.482Z,101124.73
2019-05-29T08:10:40.048Z,101124.48
2019-05-29T08:13:12.995Z,101126.08
2019-05-29T08:15:57.484Z,101123.16
2019-05-29T08:18:19.716Z,101138.23
2019-05-29T08:20:51.975Z,101143.19
2019-05-29T08:23:24.416Z,101144.72
2019-05-29T08:25:56.715Z,101144.07
2019-05-29T08:28:29.156Z,101151.17
2019-05-29T08:31:01.656Z,101146.72
2019-05-29T08:33:34.158Z,101146.00
2019-05-29T08:36:06.459Z,101151.50
2019-05-29T08:38:38.937Z,101159.03
2019-05-29T08:41:11.195Z,101162.22
2019-05-29T08:43:45.214Z,101161.37
2019-05-29T08:46:17.515Z,101163.77
2019-05-29T08:48:50.184Z,101158.84
2019-05-29T08:51:22.538Z,101162.54
2019-05-29T08:53:55.156Z,101171.99
2019-05-29T08:56:27.555Z,101164.09
2019-05-29T08:58:59.895Z,101179.20
2019-05-29T09:01:33.181Z,101178.61
2019-05-29T09:04:05.798Z,101176.30
2019-05-29T09:06:38.236Z,101179.33
2019-05-29T09:09:11.746Z,101180.31
2019-05-29T09:11:45.246Z,101187.18
2019-05-29T09:14:18.380Z,101183.45
2019-05-29T09:16:50.886Z,101183.06
2019-05-29T09:19:23.300Z,101183.08
2019-05-29T09:21:55.680Z,101179.80
2019-05-29T09:24:28.081Z,101176.16
2019-05-29T09:27:00.823Z,101185.84
2019-05-29T09:29:33.180Z,101191.42
2019-05-29T09:32:05.760Z,101191.50
2019-05-29T09:34:39.060Z,101194.20
2019-05-29T09:37:11.581Z,101198.12
2019-05-29T09:39:44.233Z,101206.79
2019-05-29T09:42:17.380Z,101208.84
2019-05-29T09:44:50.950Z,101211.41
2019-05-29T09:47:24.258Z,101208.42
2019-05-29T09:49:57.870Z,101209.16
2019-05-29T09:52:30.928Z,101213.62
2019-05-29T09:55:05.040Z,101213.16
2019-05-29T09:57:37.386Z,101219.69
2019-05-29T10:00:12.214Z,101216.51
2019-05-29T10:02:44.555Z,101212.19
2019-05-29T10:05:16.992Z,101212.92
2019-05-29T10:07:49.582Z,101210.78
2019-05-29T10:10:22.753Z,101222.13
2019-05-29T10:12:56.488Z,101225.12
2019-05-29T10:15:29.737Z,101223.33
2019-05-29T10:18:02.738Z,101226.25
2019-05-29T10:20:36.697Z,101221.91
2019-05-29T10:23:08.996Z,101230.55
2019-05-29T10:25:41.351Z,101240.89
2019-05-29T10:28:13.991Z,101240.17
2019-05-29T10:30:48.287Z,101245.55
2019-05-29T10:33:20.826Z,101247.98
2019-05-29T10:35:55.359Z,101247.34
2019-05-29T10:38:27.412Z,101249.97
2019-05-29T10:41:06.323Z,101256.86
2019-05-29T10:43:35.367Z,101256.70
2019-05-29T10:46:07.857Z,101260.62
2019-05-29T10:48:40.351Z,101266.55
2019-05-29T10:51:12.702Z,101269.20
2019-05-29T10:53:46.829Z,101276.34
2019-05-29T10:56:21.500Z,101282.91
2019-05-29T10:58:59.312Z,101269.59
2019-05-29T11:01:28.235Z,101277.81
2019-05-29T11:04:00.871Z,101278.08
2019-05-29T11:06:33.431Z,101279.92
2019-05-29T11:09:07.830Z,101284.84
2019-05-29T11:11:40.291Z,101290.07
2019-05-29T11:14:12.870Z,101291.89
2019-05-29T11:16:45.298Z,101290.48
2019-05-29T11:19:17.777Z,101292.95
2019-05-29T11:21:50.071Z,101289.64
2019-05-29T11:24:22.488Z,101283.41
2019-05-29T11:26:54.762Z,101302.09
2019-05-29T11:29:27.331Z,101307.05
2019-05-29T11:31:59.592Z,101295.50
2019-05-29T11:34:32.111Z,101307.66
2019-05-29T11:37:04.403Z,101305.58
2019-05-29T11:39:36.810Z,101306.91
2019-05-29T11:42:09.071Z,101302.24
2019-05-29T11:44:41.625Z,101305.00
2019-05-29T11:47:14.201Z,101307.94
2019-05-29T11:49:46.773Z,101310.73
2019-05-29T11:52:24.859Z,101316.34
2019-05-29T11:54:56.472Z,101311.35
2019-05-29T11:57:27.413Z,101314.30
2019-05-29T12:00:07.114Z,101310.83
2019-05-29T12:02:34.276Z,101309.71
2019-05-29T12:05:11.710Z,101308.57
2019-05-29T12:07:44.026Z,101317.58
2019-05-29T12:10:17.059Z,101318.84
2019-05-29T12:12:49.627Z,101320.26
2019-05-29T12:15:22.225Z,101314.68
2019-05-29T12:18:08.821Z,101307.02
2019-05-29T12:20:29.243Z,101315.00
2019-05-29T12:23:25.554Z,101323.86
2019-05-29T12:25:36.825Z,101322.14
2019-05-29T12:28:09.425Z,101325.77
2019-05-29T12:30:41.966Z,101327.63
2019-05-29T12:33:14.487Z,101341.20
2019-05-29T12:35:50.045Z,101329.30
2019-05-29T12:38:20.812Z,101325.34
2019-05-29T12:40:53.586Z,101335.83
2019-05-29T12:43:27.737Z,101332.50
2019-05-29T12:46:00.272Z,101333.97
2019-05-29T12:48:33.865Z,101336.00
2019-05-29T12:51:06.210Z,101333.73
2019-05-29T12:53:38.580Z,101333.61
2019-05-29T12:56:10.865Z,101339.98
2019-05-29T12:58:43.228Z,101335.91
2019-05-29T13:01:15.626Z,101331.03
2019-05-29T13:03:48.047Z,101330.98
2019-05-29T13:06:20.709Z,101330.05
2019-05-29T13:08:54.450Z,101337.72
2019-05-29T13:11:26.986Z,101338.14
2019-05-29T13:14:00.488Z,101333.34
2019-05-29T13:16:33.125Z,101336.55
2019-05-29T13:19:05.774Z,101333.16
2019-05-29T13:21:38.286Z,101343.45
2019-05-29T13:24:11.740Z,101344.52
2019-05-29T13:26:44.515Z,101341.06
2019-05-29T13:29:17.126Z,101341.00
2019-05-29T13:31:49.753Z,101333.16
2019-05-29T13:34:22.260Z,101339.19
2019-05-29T13:36:59.824Z,101340.98
2019-05-29T13:39:29.982Z,101333.81
2019-05-29T13:42:08.637Z,101336.06
2019-05-29T13:44:36.740Z,101349.66
2019-05-29T13:47:09.280Z,101346.52
2019-05-29T13:49:42.087Z,101338.06
2019-05-29T13:52:14.817Z,101339.59
2019-05-29T13:54:47.511Z,101348.94
2019-05-29T13:57:19.910Z,101341.20
2019-05-29T13:59:53.635Z,101335.94
2019-05-29T14:02:26.072Z,101336.66
2019-05-29T14:04:58.511Z,101344.48
2019-05-29T14:07:31.052Z,101340.03
2019-05-29T14:10:04.721Z,101338.95
2019-05-29T14:12:39.391Z,101342.18
2019-05-29T14:15:13.110Z,101345.94
2019-05-29T14:17:46.294Z,101337.58
2019-05-29T14:20:19.794Z,101347.48
2019-05-29T14:22:52.981Z,101347.13
2019-05-29T14:25:25.508Z,101346.38
2019-05-29T14:28:02.493Z,101343.84
2019-05-29T14:30:36.018Z,101345.98
2019-05-29T14:33:11.953Z,101348.41
2019-05-29T14:35:43.005Z,101346.48
2019-05-29T14:38:15.475Z,101336.06
2019-05-29T14:40:48.121Z,101353.71
2019-05-29T14:43:20.770Z,101351.92
2019-05-29T14:45:53.263Z,101354.95
2019-05-29T14:48:26.007Z,101349.30
2019-05-29T14:50:58.495Z,101353.95
2019-05-29T14:53:31.325Z,101361.02
2019-05-29T14:56:04.485Z,101364.14
2019-05-29T14:58:37.122Z,101359.31
2019-05-29T15:01:09.585Z,101357.88
2019-05-29T15:03:42.261Z,101356.77
2019-05-29T15:06:14.947Z,101362.22
2019-05-29T15:08:47.745Z,101358.48
2019-05-29T15:11:20.166Z,101352.19
2019-05-29T15:13:52.975Z,101357.28
2019-05-29T15:16:25.693Z,101358.71
2019-05-29T15:18:58.322Z,101370.58
2019-05-29T15:21:30.885Z,101362.69
2019-05-29T15:24:03.539Z,101366.20
2019-05-29T15:26:36.115Z,101375.86
2019-05-29T15:29:08.568Z,101373.11
2019-05-29T15:31:41.165Z,101382.09
2019-05-29T15:34:14.478Z,101387.27
2019-05-29T15:36:47.136Z,101378.31
2019-05-29T15:39:21.210Z,101376.02
2019-05-29T15:41:53.857Z,101375.53
2019-05-29T15:44:26.330Z,101379.40
2019-05-29T15:46:58.960Z,101377.36
2019-05-29T15:49:31.985Z,101386.90
2019-05-29T15:52:04.865Z,101384.02
2019-05-29T15:54:37.649Z,101391.60
2019-05-29T15:57:10.999Z,101388.68
2019-05-29T15:59:43.765Z,101399.17
2019-05-29T16:02:17.799Z,101393.08
2019-05-29T16:04:50.911Z,101389.31
2019-05-29T16:07:23.552Z,101391.00
2019-05-29T16:09:57.231Z,101387.94
2019-05-29T16:12:31.236Z,101388.69
2019-05-29T16:15:05.131Z,101390.02
2019-05-29T16:17:37.806Z,101392.59
2019-05-29T16:20:12.349Z,101392.07
2019-05-29T16:22:45.411Z,101395.47
2019-05-29T16:25:19.111Z,101394.95
2019-05-29T16:27:51.878Z,101393.34
2019-05-29T16:30:24.661Z,101391.14
2019-05-29T16:32:57.602Z,101394.64
2019-05-29T16:35:30.012Z,101400.52
2019-05-29T16:38:02.667Z,101400.81
2019-05-29T16:40:35.357Z,101398.58
2019-05-29T16:43:08.247Z,101406.67
2019-05-29T16:45:40.710Z,101414.26
2019-05-29T16:48:14.573Z,101420.13
2019-05-29T16:50:47.642Z,101413.23
2019-05-29T16:53:21.030Z,101426.13
2019-05-29T16:55:54.583Z,101425.97
2019-05-29T16:58:27.485Z,101422.17
2019-05-29T17:01:00.561Z,101426.64
2019-05-29T17:03:33.009Z,101432.78
2019-05-29T17:06:05.679Z,101430.89
2019-05-29T17:08:38.371Z,101427.56
2019-05-29T17:11:11.716Z,101428.98
2019-05-29T17:13:44.484Z,101434.09
2019-05-29T17:16:16.842Z,101438.58
2019-05-29T17:18:50.770Z,101441.41
2019-05-29T17:21:24.842Z,101445.23
2019-05-29T17:23:57.830Z,101451.91
2019-05-29T17:26:30.281Z,101447.14
2019-05-29T17:29:03.173Z,101450.55
2019-05-29T17:31:35.910Z,101453.55
2019-05-29T17:34:08.691Z,101462.98
2019-05-29T17:36:41.362Z,101460.42
2019-05-29T17:39:15.232Z,101460.48
2019-05-29T17:41:48.056Z,101464.69
2019-05-29T17:44:21.406Z,101464.94
2019-05-29T17:46:54.026Z,101475.03
2019-05-29T17:49:33.014Z,101479.58
2019-05-29T17:52:01.034Z,101476.69
2019-05-29T17:54:33.781Z,101478.63
2019-05-29T17:57:06.368Z,101478.06
2019-05-29T17:59:38.986Z,101471.73
2019-05-29T18:02:11.907Z,101479.04
2019-05-29T18:04:44.760Z,101484.84
2019-05-29T18:07:18.296Z,101483.63
2019-05-29T18:09:52.565Z,101483.45
2019-05-29T18:12:25.079Z,101493.79
2019-05-29T18:14:57.900Z,101494.95
2019-05-29T18:17:30.800Z,101498.12
2019-05-29T18:20:04.391Z,101505.22
2019-05-29T18:22:37.125Z,101505.70
2019-05-29T18:25:11.376Z,101503.34
2019-05-29T18:27:43.896Z,101508.95
2019-05-29T18:30:18.616Z,101522.36
2019-05-29T18:32:51.345Z,101522.80
2019-05-29T18:35:24.957Z,101523.72
2019-05-29T18:37:58.270Z,101533.44
2019-05-29T18:40:31.000Z,101546.85
2019-05-29T18:43:03.702Z,101539.64
2019-05-29T18:45:36.416Z,101546.23
2019-05-29T18:48:09.091Z,101551.21
2019-05-29T18:50:44.354Z,101561.09
2019-05-29T18:53:16.410Z,101561.14
2019-05-29T18:55:49.308Z,101565.54
2019-05-29T18:58:22.220Z,101567.30
2019-05-29T19:00:54.975Z,101574.98
2019-05-29T19:03:29.640Z,101572.19
2019-05-29T19:06:02.524Z,101580.22
2019-05-29T19:08:35.440Z,101581.87
2019-05-29T19:11:09.456Z,101593.67
2019-05-29T19:13:42.411Z,101595.41
2019-05-29T19:16:15.328Z,101596.86
2019-05-29T19:18:47.950Z,101595.63
2019-05-29T19:21:20.536Z,101603.18
2019-05-29T19:23:54.172Z,101610.27
2019-05-29T19:26:26.756Z,101618.12
2019-05-29T19:28:59.511Z,101621.61
2019-05-29T19:31:33.265Z,101619.28
2019-05-29T19:34:06.475Z,101621.30
2019-05-29T19:36:40.431Z,101630.70
2019-05-29T19:39:13.157Z,101632.65
2019-05-29T19:41:45.900Z,101636.82
2019-05-29T19:44:18.711Z,101641.08
2019-05-29T19:46:53.962Z,101643.80
2019-05-29T19:49:27.257Z,101640.36
2019-05-29T19:52:00.225Z,101644.68
2019-05-29T19:54:33.650Z,101651.51
2019-05-29T19:57:07.545Z,101650.48
2019-05-29T19:59:40.202Z,101652.05
2019-05-29T20:02:12.767Z,101658.80
2019-05-29T20:04:45.414Z,101657.39
2019-05-29T20:07:18.067Z,101665.70
2019-05-29T20:09:50.805Z,101674.89
2019-05-29T20:12:23.205Z,101670.44
2019-05-29T20:14:55.985Z,101680.67
2019-05-29T20:17:28.595Z,101681.73
2019-05-29T20:20:01.266Z,101677.78
2019-05-29T20:22:34.962Z,101686.12
2019-05-29T20:25:09.246Z,101690.16
2019-05-29T20:27:42.478Z,101692.08
2019-05-29T20:30:19.651Z,101693.20
2019-05-29T20:32:52.665Z,101705.58
2019-05-29T20:35:25.270Z,101707.80
2019-05-29T20:37:58.211Z,101702.99
2019-05-29T20:40:31.255Z,101710.05
2019-05-29T20:43:04.172Z,101711.19
2019-05-29T20:45:37.644Z,101716.11
2019-05-29T20:48:10.954Z,101711.45
2019-05-29T20:50:43.675Z,101718.10
2019-05-29T20:53:16.260Z,101720.12
2019-05-29T20:55:49.241Z,101726.06
2019-05-29T20:58:24.887Z,101728.95
2019-05-29T21:00:56.284Z,101735.41
2019-05-29T21:03:30.295Z,101733.37
2019-05-29T21:06:03.825Z,101729.60
2019-05-29T21:08:36.905Z,101735.39
2019-05-29T21:11:10.205Z,101732.03
2019-05-29T21:13:43.698Z,101736.64
2019-05-29T21:16:16.366Z,101740.31
2019-05-29T21:18:49.170Z,101741.02
2019-05-29T21:21:21.906Z,101742.53
2019-05-29T21:23:54.855Z,101743.13
2019-05-29T21:26:27.760Z,101749.08
2019-05-29T21:29:00.565Z,101753.67
2019-05-29T21:31:33.238Z,101755.44
2019-05-29T21:34:05.981Z,101759.09
2019-05-29T21:36:38.536Z,101755.84
2019-05-29T21:39:11.340Z,101752.59
2019-05-29T21:41:44.940Z,101758.11
2019-05-29T21:44:17.575Z,101763.16
2019-05-29T21:46:50.295Z,101759.16
2019-05-29T21:49:22.850Z,101765.95
2019-05-29T21:51:55.521Z,101776.66
2019-05-29T21:54:28.160Z,101773.45
2019-05-29T21:57:00.735Z,101774.86
2019-05-29T21:59:33.391Z,101780.30
2019-05-29T22:02:07.701Z,101778.83
2019-05-29T22:04:40.710Z,101779.84
2019-05-29T22:07:14.139Z,101781.31
2019-05-29T22:09:46.967Z,101788.16
2019-05-29T22:12:19.260Z,101788.42
2019-05-29T22:14:53.265Z,101797.05
2019-05-29T22:17:26.370Z,101791.59
2019-05-29T22:19:59.150Z,101796.22
2019-05-29T22:22:31.575Z,101795.56
2019-05-29T22:25:05.421Z,101800.17
2019-05-29T22:27:38.708Z,101801.75
2019-05-29T22:30:11.605Z,101803.77
2019-05-29T22:32:44.619Z,101803.15
2019-05-29T22:35:17.985Z,101801.26
2019-05-29T22:37:51.564Z,101808.20
2019-05-29T22:40:24.373Z,101808.20
2019-05-29T22:42:57.587Z,101812.80
2019-05-29T22:45:30.040Z,101818.48
2019-05-29T22:48:02.566Z,101818.48
2019-05-29T22:50:36.070Z,101821.11
2019-05-29T22:53:08.665Z,101824.52
2019-05-29T22:55:41.521Z,101824.44
2019-05-29T22:58:15.570Z,101814.31
2019-05-29T23:00:48.260Z,101828.89
2019-05-29T23:03:21.035Z,101832.16
2019-05-29T23:05:54.282Z,101839.63
2019-05-29T23:08:26.947Z,101833.64
2019-05-29T23:11:00.379Z,101833.36
2019-05-29T23:13:33.151Z,101829.87
2019-05-29T23:16:05.756Z,101829.87
2019-05-29T23:18:38.523Z,101828.71
2019-05-29T23:21:11.227Z,101849.22
2019-05-29T23:23:44.045Z,101851.11
2019-05-29T23:26:16.720Z,101855.08
2019-05-29T23:28:49.313Z,101862.71
2019-05-29T23:31:21.885Z,101862.71
2019-05-29T23:33:54.815Z,101859.38
2019-05-29T23:36:27.230Z,101863.36
2019-05-29T23:38:59.923Z,101857.75
2019-05-29T23:41:32.610Z,101857.75
2019-05-29T23:44:06.002Z,101853.25
2019-05-29T23:46:38.546Z,101859.05
2019-05-29T23:49:11.234Z,101852.31
2019-05-29T23:51:43.895Z,101859.03
2019-05-29T23:54:16.595Z,101850.55
2019-05-29T23:56:49.155Z,101849.30
2019-05-29T23:59:21.610Z,101849.78
